sensor_id;sensor_type;location;lat;lon;timestamp;pressure;altitude;pressure_sealevel;temperature;humidity
56807;BME280;42687;42.524;12.052;2022-07-29T00:02:08;96656.19;;;18.86;100.00
56807;BME280;42687;42.524;12.052;2022-07-29T00:04:34;96655.50;;;18.74;100.00
56807;BME280;42687;42.524;12.052;2022-07-29T00:06:59;96658.31;;;18.63;100.00
56807;BME280;42687;42.524;12.052;2022-07-29T00:09:25;96652.72;;;18.56;100.00
56807;BME280;42687;42.524;12.052;2022-07-29T00:11:51;96651.75;;;18.57;100.00
56807;BME280;42687;42.524;12.052;2022-07-29T00:14:16;96647.94;;;18.60;100.00
56807;BME280;42687;42.524;12.052;2022-07-29T00:16:42;96648.34;;;18.55;100.00
56807;BME280;42687;42.524;12.052;2022-07-29T00:19:07;96655.81;;;18.52;100.00
56807;BME280;42687;42.524;12.052;2022-07-29T00:21:33;96649.94;;;18.48;100.00
56807;BME280;42687;42.524;12.052;2022-07-29T00:23:58;96652.72;;;18.46;100.00
56807;BME280;42687;42.524;12.052;2022-07-29T00:26:24;96645.72;;;18.45;100.00
56807;BME280;42687;42.524;12.052;2022-07-29T00:28:50;96642.91;;;18.47;100.00
56807;BME280;42687;42.524;12.052;2022-07-29T00:31:15;96640.38;;;18.55;100.00
56807;BME280;42687;42.524;12.052;2022-07-29T00:33:41;96623.31;;;18.38;100.00
56807;BME280;42687;42.524;12.052;2022-07-29T00:36:06;96637.75;;;18.36;100.00
56807;BME280;42687;42.524;12.052;2022-07-29T00:38:32;96641.25;;;18.26;100.00
56807;BME280;42687;42.524;12.052;2022-07-29T00:40:57;96637.75;;;18.16;100.00
56807;BME280;42687;42.524;12.052;2022-07-29T00:43:23;96631.84;;;18.12;100.00
56807;BME280;42687;42.524;12.052;2022-07-29T00:45:48;96640.13;;;18.19;100.00
56807;BME280;42687;42.524;12.052;2022-07-29T00:48:14;96642.91;;;18.27;100.00
56807;BME280;42687;42.524;12.052;2022-07-29T00:50:39;96648.94;;;18.29;100.00
56807;BME280;42687;42.524;12.052;2022-07-29T00:53:05;96652.44;;;18.30;100.00
56807;BME280;42687;42.524;12.052;2022-07-29T00:55:31;96637.88;;;18.34;100.00
56807;BME280;42687;42.524;12.052;2022-07-29T00:57:57;96641.53;;;18.33;100.00
56807;BME280;42687;42.524;12.052;2022-07-29T01:00:24;96635.94;;;18.26;100.00
56807;BME280;42687;42.524;12.052;2022-07-29T01:02:49;96630.19;;;18.21;100.00
56807;BME280;42687;42.524;12.052;2022-07-29T01:05:16;96635.91;;;18.16;100.00
56807;BME280;42687;42.524;12.052;2022-07-29T01:07:43;96635.09;;;18.16;100.00
56807;BME280;42687;42.524;12.052;2022-07-29T01:10:09;96639.44;;;18.17;100.00
56807;BME280;42687;42.524;12.052;2022-07-29T01:12:35;96634.22;;;18.15;100.00
56807;BME280;42687;42.524;12.052;2022-07-29T01:15:02;96627.34;;;18.13;100.00
56807;BME280;42687;42.524;12.052;2022-07-29T01:17:34;96627.94;;;18.16;100.00
56807;BME280;42687;42.524;12.052;2022-07-29T01:22:35;96628.19;;;18.04;100.00
56807;BME280;42687;42.524;12.052;2022-07-29T01:25:10;96633.53;;;17.94;100.00
56807;BME280;42687;42.524;12.052;2022-07-29T01:27:46;96629.81;;;17.85;100.00
56807;BME280;42687;42.524;12.052;2022-07-29T01:30:14;96622.97;;;17.73;100.00
56807;BME280;42687;42.524;12.052;2022-07-29T01:32:40;96622.81;;;17.64;100.00
56807;BME280;42687;42.524;12.052;2022-07-29T01:38:14;96628.28;;;17.73;100.00
56807;BME280;42687;42.524;12.052;2022-07-29T01:43:11;96643.28;;;17.83;100.00
56807;BME280;42687;42.524;12.052;2022-07-29T01:45:56;96632.19;;;17.78;100.00
56807;BME280;42687;42.524;12.052;2022-07-29T01:48:34;96633.75;;;17.81;100.00
56807;BME280;42687;42.524;12.052;2022-07-29T01:51:05;96572.97;;;17.47;100.00
56807;BME280;42687;42.524;12.052;2022-07-29T01:53:34;96639.63;;;17.84;100.00
56807;BME280;42687;42.524;12.052;2022-07-29T01:56:01;96631.66;;;17.84;100.00
56807;BME280;42687;42.524;12.052;2022-07-29T01:58:28;96630.25;;;17.90;100.00
56807;BME280;42687;42.524;12.052;2022-07-29T02:00:55;96624.41;;;17.96;100.00
56807;BME280;42687;42.524;12.052;2022-07-29T02:03:22;96625.41;;;17.95;100.00
56807;BME280;42687;42.524;12.052;2022-07-29T02:05:48;96630.41;;;17.89;100.00
56807;BME280;42687;42.524;12.052;2022-07-29T02:08:15;96626.63;;;17.81;100.00
56807;BME280;42687;42.524;12.052;2022-07-29T02:10:41;96629.69;;;17.77;100.00
56807;BME280;42687;42.524;12.052;2022-07-29T02:13:07;96618.66;;;17.81;100.00
56807;BME280;42687;42.524;12.052;2022-07-29T02:15:34;96612.91;;;17.86;100.00
56807;BME280;42687;42.524;12.052;2022-07-29T02:18:02;96615.41;;;17.88;100.00
56807;BME280;42687;42.524;12.052;2022-07-29T02:20:30;96613.19;;;17.83;100.00
56807;BME280;42687;42.524;12.052;2022-07-29T02:22:56;96616.25;;;17.78;100.00
56807;BME280;42687;42.524;12.052;2022-07-29T02:25:22;96613.88;;;17.75;100.00
56807;BME280;42687;42.524;12.052;2022-07-29T02:27:49;96610.53;;;17.73;100.00
56807;BME280;42687;42.524;12.052;2022-07-29T02:30:16;96615.84;;;17.73;100.00
56807;BME280;42687;42.524;12.052;2022-07-29T02:32:42;96619.63;;;17.71;100.00
56807;BME280;42687;42.524;12.052;2022-07-29T02:35:08;96625.75;;;17.71;100.00
56807;BME280;42687;42.524;12.052;2022-07-29T02:37:35;96631.06;;;17.71;100.00
56807;BME280;42687;42.524;12.052;2022-07-29T02:40:01;96628.41;;;17.71;100.00
56807;BME280;42687;42.524;12.052;2022-07-29T02:42:27;96633.59;;;17.73;100.00
56807;BME280;42687;42.524;12.052;2022-07-29T02:44:53;96638.78;;;17.74;100.00
56807;BME280;42687;42.524;12.052;2022-07-29T02:47:23;96625.91;;;17.79;100.00
56807;BME280;42687;42.524;12.052;2022-07-29T02:49:57;96620.03;;;17.86;100.00
56807;BME280;42687;42.524;12.052;2022-07-29T02:52:26;96610.81;;;17.90;100.00
56807;BME280;42687;42.524;12.052;2022-07-29T02:55:00;96612.09;;;17.95;100.00
56807;BME280;42687;42.524;12.052;2022-07-29T03:00:26;96620.34;;;17.82;100.00
56807;BME280;42687;42.524;12.052;2022-07-29T03:02:53;96605.88;;;17.65;100.00
56807;BME280;42687;42.524;12.052;2022-07-29T03:05:19;96602.63;;;17.52;100.00
56807;BME280;42687;42.524;12.052;2022-07-29T03:07:47;96614.78;;;17.45;100.00
56807;BME280;42687;42.524;12.052;2022-07-29T03:10:14;96608.94;;;17.51;100.00
56807;BME280;42687;42.524;12.052;2022-07-29T03:12:40;96605.00;;;17.55;100.00
56807;BME280;42687;42.524;12.052;2022-07-29T03:15:06;96606.69;;;17.56;100.00
56807;BME280;42687;42.524;12.052;2022-07-29T03:17:33;96619.84;;;17.58;100.00
56807;BME280;42687;42.524;12.052;2022-07-29T03:19:59;96614.53;;;17.58;100.00
56807;BME280;42687;42.524;12.052;2022-07-29T03:22:24;96612.56;;;17.60;100.00
56807;BME280;42687;42.524;12.052;2022-07-29T03:24:50;96608.94;;;17.61;100.00
56807;BME280;42687;42.524;12.052;2022-07-29T03:27:16;96613.56;;;17.68;100.00
56807;BME280;42687;42.524;12.052;2022-07-29T03:29:41;96612.19;;;17.74;100.00
56807;BME280;42687;42.524;12.052;2022-07-29T03:32:07;96607.56;;;17.76;100.00
56807;BME280;42687;42.524;12.052;2022-07-29T03:34:32;96612.75;;;17.78;100.00
56807;BME280;42687;42.524;12.052;2022-07-29T03:36:58;96615.00;;;17.82;100.00
56807;BME280;42687;42.524;12.052;2022-07-29T03:39:24;96611.34;;;17.83;100.00
56807;BME280;42687;42.524;12.052;2022-07-29T03:41:52;96618.06;;;17.78;100.00
56807;BME280;42687;42.524;12.052;2022-07-29T03:44:19;96614.00;;;17.74;100.00
56807;BME280;42687;42.524;12.052;2022-07-29T03:46:46;96616.66;;;17.74;100.00
56807;BME280;42687;42.524;12.052;2022-07-29T03:49:14;96625.75;;;17.71;100.00
56807;BME280;42687;42.524;12.052;2022-07-29T03:51:40;96620.97;;;17.65;100.00
56807;BME280;42687;42.524;12.052;2022-07-29T03:54:05;96613.81;;;17.56;100.00
56807;BME280;42687;42.524;12.052;2022-07-29T03:56:32;96604.88;;;17.47;100.00
56807;BME280;42687;42.524;12.052;2022-07-29T03:58:59;96612.84;;;17.57;100.00
56807;BME280;42687;42.524;12.052;2022-07-29T04:01:26;96619.03;;;17.67;100.00
56807;BME280;42687;42.524;12.052;2022-07-29T04:03:52;96632.63;;;17.64;100.00
56807;BME280;42687;42.524;12.052;2022-07-29T04:06:18;96620.13;;;17.55;100.00
56807;BME280;42687;42.524;12.052;2022-07-29T04:08:43;96621.34;;;17.50;100.00
56807;BME280;42687;42.524;12.052;2022-07-29T04:11:09;96638.56;;;17.46;100.00
56807;BME280;42687;42.524;12.052;2022-07-29T04:13:34;96645.00;;;17.44;100.00
56807;BME280;42687;42.524;12.052;2022-07-29T04:16:00;96653.09;;;17.42;100.00
56807;BME280;42687;42.524;12.052;2022-07-29T04:18:26;96644.16;;;17.43;100.00
56807;BME280;42687;42.524;12.052;2022-07-29T04:20:51;96647.84;;;17.52;100.00
56807;BME280;42687;42.524;12.052;2022-07-29T04:23:17;96645.34;;;17.60;100.00
56807;BME280;42687;42.524;12.052;2022-07-29T04:25:42;96652.34;;;17.71;100.00
56807;BME280;42687;42.524;12.052;2022-07-29T04:28:09;96658.41;;;17.83;100.00
56807;BME280;42687;42.524;12.052;2022-07-29T04:30:35;96657.00;;;17.89;100.00
56807;BME280;42687;42.524;12.052;2022-07-29T04:33:01;96654.09;;;17.92;100.00
56807;BME280;42687;42.524;12.052;2022-07-29T04:35:27;96654.09;;;17.92;100.00
56807;BME280;42687;42.524;12.052;2022-07-29T04:37:53;96660.69;;;17.97;100.00
56807;BME280;42687;42.524;12.052;2022-07-29T04:40:19;96661.66;;;18.06;100.00
56807;BME280;42687;42.524;12.052;2022-07-29T04:42:44;96664.50;;;18.14;100.00
56807;BME280;42687;42.524;12.052;2022-07-29T04:45:10;96664.63;;;18.23;100.00
56807;BME280;42687;42.524;12.052;2022-07-29T04:47:35;96671.38;;;18.27;100.00
56807;BME280;42687;42.524;12.052;2022-07-29T04:50:01;96670.38;;;18.28;100.00
56807;BME280;42687;42.524;12.052;2022-07-29T04:52:26;96669.94;;;18.32;100.00
56807;BME280;42687;42.524;12.052;2022-07-29T04:54:52;96671.34;;;18.37;100.00
56807;BME280;42687;42.524;12.052;2022-07-29T04:57:17;96654.69;;;18.44;100.00
56807;BME280;42687;42.524;12.052;2022-07-29T04:59:42;96666.03;;;18.56;100.00
56807;BME280;42687;42.524;12.052;2022-07-29T05:02:09;96661.25;;;18.70;100.00
56807;BME280;42687;42.524;12.052;2022-07-29T05:04:35;96663.31;;;18.86;100.00
56807;BME280;42687;42.524;12.052;2022-07-29T05:07:00;96664.31;;;18.94;100.00
56807;BME280;42687;42.524;12.052;2022-07-29T05:09:26;96666.41;;;19.00;100.00
56807;BME280;42687;42.524;12.052;2022-07-29T05:11:51;96673.25;;;19.03;100.00
56807;BME280;42687;42.524;12.052;2022-07-29T05:14:17;96668.63;;;19.05;100.00
56807;BME280;42687;42.524;12.052;2022-07-29T05:16:42;96675.19;;;19.11;100.00
56807;BME280;42687;42.524;12.052;2022-07-29T05:19:08;96653.78;;;19.03;100.00
56807;BME280;42687;42.524;12.052;2022-07-29T05:21:34;96671.66;;;19.20;100.00
56807;BME280;42687;42.524;12.052;2022-07-29T05:23:59;96683.41;;;19.37;100.00
56807;BME280;42687;42.524;12.052;2022-07-29T05:26:25;96682.53;;;19.46;100.00
56807;BME280;42687;42.524;12.052;2022-07-29T05:28:50;96684.56;;;19.62;97.38
56807;BME280;42687;42.524;12.052;2022-07-29T05:31:16;96689.09;;;19.80;93.25
56807;BME280;42687;42.524;12.052;2022-07-29T05:33:41;96688.47;;;19.96;92.77
56807;BME280;42687;42.524;12.052;2022-07-29T05:36:07;96669.03;;;20.04;93.28
56807;BME280;42687;42.524;12.052;2022-07-29T05:38:33;96690.75;;;20.19;88.25
56807;BME280;42687;42.524;12.052;2022-07-29T05:40:59;96685.84;;;20.32;85.42
56807;BME280;42687;42.524;12.052;2022-07-29T05:43:25;96682.28;;;20.41;82.63
56807;BME280;42687;42.524;12.052;2022-07-29T05:45:51;96684.69;;;20.53;86.59
56807;BME280;42687;42.524;12.052;2022-07-29T05:48:16;96697.59;;;20.57;81.77
56807;BME280;42687;42.524;12.052;2022-07-29T05:50:42;96686.81;;;20.67;83.40
56807;BME280;42687;42.524;12.052;2022-07-29T05:53:07;96692.97;;;20.77;85.42
56807;BME280;42687;42.524;12.052;2022-07-29T05:55:33;96697.38;;;20.87;85.90
56807;BME280;42687;42.524;12.052;2022-07-29T05:57:58;96692.91;;;20.95;83.79
56807;BME280;42687;42.524;12.052;2022-07-29T06:00:24;96696.03;;;21.09;84.09
56807;BME280;42687;42.524;12.052;2022-07-29T06:02:49;96689.78;;;21.26;80.78
56807;BME280;42687;42.524;12.052;2022-07-29T06:05:15;96699.31;;;21.90;79.49
56807;BME280;42687;42.524;12.052;2022-07-29T06:07:40;96694.78;;;22.66;77.18
56807;BME280;42687;42.524;12.052;2022-07-29T06:10:06;96686.03;;;23.46;75.74
56807;BME280;42687;42.524;12.052;2022-07-29T06:12:31;96693.78;;;24.21;75.46
56807;BME280;42687;42.524;12.052;2022-07-29T06:14:57;96692.41;;;24.94;75.29
56807;BME280;42687;42.524;12.052;2022-07-29T06:17:22;96688.28;;;25.60;75.12
56807;BME280;42687;42.524;12.052;2022-07-29T06:19:48;96690.38;;;26.09;75.02
56807;BME280;42687;42.524;12.052;2022-07-29T06:22:17;96687.28;;;26.49;74.84
56807;BME280;42687;42.524;12.052;2022-07-29T06:24:42;96696.78;;;26.88;75.22
56807;BME280;42687;42.524;12.052;2022-07-29T06:27:12;96700.25;;;27.32;75.34
56807;BME280;42687;42.524;12.052;2022-07-29T06:29:37;96710.94;;;27.75;74.21
56807;BME280;42687;42.524;12.052;2022-07-29T06:32:03;96711.56;;;28.12;73.72
56807;BME280;42687;42.524;12.052;2022-07-29T06:34:28;96713.31;;;28.34;72.94
56807;BME280;42687;42.524;12.052;2022-07-29T06:36:54;96722.97;;;28.63;72.06
56807;BME280;42687;42.524;12.052;2022-07-29T06:39:19;96725.34;;;28.93;70.92
56807;BME280;42687;42.524;12.052;2022-07-29T06:41:48;96719.94;;;29.26;69.86
56807;BME280;42687;42.524;12.052;2022-07-29T06:44:17;96726.19;;;29.54;69.39
56807;BME280;42687;42.524;12.052;2022-07-29T06:46:42;96730.34;;;29.63;68.26
56807;BME280;42687;42.524;12.052;2022-07-29T06:49:08;96740.72;;;29.79;67.58
56807;BME280;42687;42.524;12.052;2022-07-29T06:51:34;96738.63;;;29.95;66.31
56807;BME280;42687;42.524;12.052;2022-07-29T06:54:00;96737.16;;;29.99;66.51
56807;BME280;42687;42.524;12.052;2022-07-29T06:56:26;96742.50;;;30.19;66.24
56807;BME280;42687;42.524;12.052;2022-07-29T06:58:52;96746.13;;;30.45;65.73
56807;BME280;42687;42.524;12.052;2022-07-29T07:01:17;96742.13;;;30.61;64.53
56807;BME280;42687;42.524;12.052;2022-07-29T07:03:43;96747.75;;;30.59;64.58
56807;BME280;42687;42.524;12.052;2022-07-29T07:06:08;96749.41;;;30.67;64.40
56807;BME280;42687;42.524;12.052;2022-07-29T07:08:34;96757.00;;;30.90;64.86
56807;BME280;42687;42.524;12.052;2022-07-29T07:10:59;96754.13;;;31.17;64.55
56807;BME280;42687;42.524;12.052;2022-07-29T07:13:25;96761.88;;;31.39;64.67
56807;BME280;42687;42.524;12.052;2022-07-29T07:15:50;96761.06;;;31.64;64.05
56807;BME280;42687;42.524;12.052;2022-07-29T07:18:17;96758.06;;;31.72;63.90
56807;BME280;42687;42.524;12.052;2022-07-29T07:20:43;96753.84;;;31.94;63.63
56807;BME280;42687;42.524;12.052;2022-07-29T07:23:09;96757.13;;;32.22;62.26
56807;BME280;42687;42.524;12.052;2022-07-29T07:25:35;96771.31;;;32.42;61.79
56807;BME280;42687;42.524;12.052;2022-07-29T07:28:00;96759.28;;;32.50;61.93
56807;BME280;42687;42.524;12.052;2022-07-29T07:30:26;96773.91;;;32.68;61.39
56807;BME280;42687;42.524;12.052;2022-07-29T07:32:52;96769.50;;;32.73;61.20
56807;BME280;42687;42.524;12.052;2022-07-29T07:35:18;96769.06;;;32.70;61.07
56807;BME280;42687;42.524;12.052;2022-07-29T07:37:43;96776.84;;;32.85;60.63
56807;BME280;42687;42.524;12.052;2022-07-29T07:40:09;96772.28;;;33.09;59.74
56807;BME280;42687;42.524;12.052;2022-07-29T07:42:36;96766.81;;;33.28;59.19
56807;BME280;42687;42.524;12.052;2022-07-29T07:45:02;96769.94;;;33.55;58.28
56807;BME280;42687;42.524;12.052;2022-07-29T07:47:28;96775.63;;;33.77;57.56
56807;BME280;42687;42.524;12.052;2022-07-29T07:49:53;96769.97;;;33.79;57.16
56807;BME280;42687;42.524;12.052;2022-07-29T07:52:20;96782.97;;;33.76;56.54
56807;BME280;42687;42.524;12.052;2022-07-29T07:54:46;96733.06;;;33.52;56.65
56807;BME280;42687;42.524;12.052;2022-07-29T07:57:12;96781.13;;;33.89;56.41
56807;BME280;42687;42.524;12.052;2022-07-29T07:59:38;96771.94;;;34.19;54.73
56807;BME280;42687;42.524;12.052;2022-07-29T08:02:04;96771.09;;;34.18;54.11
56807;BME280;42687;42.524;12.052;2022-07-29T08:04:30;96768.75;;;31.67;48.05
56807;BME280;42687;42.524;12.052;2022-07-29T08:06:56;96769.81;;;32.28;49.03
56807;BME280;42687;42.524;12.052;2022-07-29T08:09:21;96771.84;;;33.54;47.72
56807;BME280;42687;42.524;12.052;2022-07-29T08:11:47;96775.97;;;33.03;44.30
56807;BME280;42687;42.524;12.052;2022-07-29T08:14:12;96772.38;;;32.23;46.93
56807;BME280;42687;42.524;12.052;2022-07-29T08:16:39;96772.38;;;33.33;45.54
56807;BME280;42687;42.524;12.052;2022-07-29T08:19:05;96780.38;;;33.82;45.07
56807;BME280;42687;42.524;12.052;2022-07-29T08:21:30;96779.16;;;31.44;46.26
56807;BME280;42687;42.524;12.052;2022-07-29T08:23:56;96724.06;;;31.37;46.83
56807;BME280;42687;42.524;12.052;2022-07-29T08:26:42;96774.75;;;32.87;45.10
56807;BME280;42687;42.524;12.052;2022-07-29T08:29:07;96769.38;;;31.18;46.49
56807;BME280;42687;42.524;12.052;2022-07-29T08:31:33;96772.81;;;32.38;45.37
56807;BME280;42687;42.524;12.052;2022-07-29T08:33:58;96774.88;;;33.46;41.68
56807;BME280;42687;42.524;12.052;2022-07-29T08:36:25;96770.06;;;31.83;45.34
56807;BME280;42687;42.524;12.052;2022-07-29T08:38:50;96779.31;;;32.19;44.45
56807;BME280;42687;42.524;12.052;2022-07-29T08:41:16;96764.56;;;33.36;42.28
56807;BME280;42687;42.524;12.052;2022-07-29T08:43:44;96778.50;;;32.37;42.38
56807;BME280;42687;42.524;12.052;2022-07-29T08:46:09;96777.66;;;31.99;43.72
56807;BME280;42687;42.524;12.052;2022-07-29T08:48:35;96773.56;;;33.37;41.84
56807;BME280;42687;42.524;12.052;2022-07-29T08:51:01;96752.97;;;32.38;42.83
56807;BME280;42687;42.524;12.052;2022-07-29T08:53:27;96776.59;;;32.37;41.86
56807;BME280;42687;42.524;12.052;2022-07-29T08:55:53;96767.47;;;32.32;41.68
56807;BME280;42687;42.524;12.052;2022-07-29T08:58:19;96776.06;;;32.10;41.89
56807;BME280;42687;42.524;12.052;2022-07-29T09:00:50;96776.50;;;32.44;41.42
56807;BME280;42687;42.524;12.052;2022-07-29T09:03:17;96776.44;;;32.51;42.02
56807;BME280;42687;42.524;12.052;2022-07-29T09:05:44;96779.75;;;31.97;42.33
56807;BME280;42687;42.524;12.052;2022-07-29T09:08:10;96782.50;;;31.72;43.15
56807;BME280;42687;42.524;12.052;2022-07-29T09:10:36;96773.19;;;32.05;42.32
56807;BME280;42687;42.524;12.052;2022-07-29T09:13:01;96763.22;;;32.36;41.03
56807;BME280;42687;42.524;12.052;2022-07-29T09:15:28;96763.53;;;32.46;40.17
56807;BME280;42687;42.524;12.052;2022-07-29T09:17:53;96768.16;;;32.27;41.14
56807;BME280;42687;42.524;12.052;2022-07-29T09:20:21;96752.44;;;32.29;40.66
56807;BME280;42687;42.524;12.052;2022-07-29T09:22:50;96761.06;;;32.26;41.08
56807;BME280;42687;42.524;12.052;2022-07-29T09:25:37;96762.41;;;32.35;40.36
56807;BME280;42687;42.524;12.052;2022-07-29T09:28:07;96755.59;;;32.07;41.07
56807;BME280;42687;42.524;12.052;2022-07-29T09:30:33;96754.69;;;32.32;40.95
56807;BME280;42687;42.524;12.052;2022-07-29T09:32:59;96745.91;;;32.49;40.78
56807;BME280;42687;42.524;12.052;2022-07-29T09:35:26;96750.78;;;32.58;39.74
56807;BME280;42687;42.524;12.052;2022-07-29T09:37:53;96744.56;;;32.88;40.90
56807;BME280;42687;42.524;12.052;2022-07-29T09:40:19;96742.56;;;33.07;39.25
56807;BME280;42687;42.524;12.052;2022-07-29T09:42:46;96742.22;;;33.16;39.61
56807;BME280;42687;42.524;12.052;2022-07-29T09:45:12;96747.16;;;33.25;39.60
56807;BME280;42687;42.524;12.052;2022-07-29T09:47:41;96740.25;;;33.23;39.11
56807;BME280;42687;42.524;12.052;2022-07-29T09:50:07;96735.47;;;32.95;39.15
56807;BME280;42687;42.524;12.052;2022-07-29T09:52:41;96741.88;;;33.12;39.41
56807;BME280;42687;42.524;12.052;2022-07-29T09:55:11;96739.97;;;33.13;39.19
56807;BME280;42687;42.524;12.052;2022-07-29T09:57:36;96741.72;;;33.49;39.03
56807;BME280;42687;42.524;12.052;2022-07-29T10:00:03;96741.25;;;33.52;37.60
56807;BME280;42687;42.524;12.052;2022-07-29T10:02:31;96729.75;;;33.27;37.82
56807;BME280;42687;42.524;12.052;2022-07-29T10:04:58;96730.75;;;33.14;38.87
56807;BME280;42687;42.524;12.052;2022-07-29T10:07:24;96732.66;;;33.25;38.41
56807;BME280;42687;42.524;12.052;2022-07-29T10:09:56;96734.13;;;33.51;37.62
56807;BME280;42687;42.524;12.052;2022-07-29T10:12:23;96725.81;;;34.05;36.68
56807;BME280;42687;42.524;12.052;2022-07-29T10:14:49;96717.78;;;33.51;37.72
56807;BME280;42687;42.524;12.052;2022-07-29T10:17:14;96719.06;;;33.49;37.09
56807;BME280;42687;42.524;12.052;2022-07-29T10:19:40;96721.22;;;33.35;37.39
56807;BME280;42687;42.524;12.052;2022-07-29T10:22:08;96727.97;;;33.44;37.11
56807;BME280;42687;42.524;12.052;2022-07-29T10:24:34;96716.72;;;33.88;36.67
56807;BME280;42687;42.524;12.052;2022-07-29T10:27:01;96727.13;;;33.91;37.45
56807;BME280;42687;42.524;12.052;2022-07-29T10:29:27;96719.69;;;34.39;36.97
56807;BME280;42687;42.524;12.052;2022-07-29T10:37:06;96729.34;;;34.18;35.55
56807;BME280;42687;42.524;12.052;2022-07-29T10:39:55;96718.78;;;34.21;36.15
56807;BME280;42687;42.524;12.052;2022-07-29T10:42:24;96716.09;;;34.50;35.40
56807;BME280;42687;42.524;12.052;2022-07-29T10:44:51;96708.97;;;34.49;35.41
56807;BME280;42687;42.524;12.052;2022-07-29T10:47:21;96708.31;;;34.30;35.00
56807;BME280;42687;42.524;12.052;2022-07-29T10:49:57;96705.22;;;34.38;35.46
56807;BME280;42687;42.524;12.052;2022-07-29T10:52:23;96697.53;;;34.23;36.21
56807;BME280;42687;42.524;12.052;2022-07-29T10:54:53;96700.09;;;33.89;37.26
56807;BME280;42687;42.524;12.052;2022-07-29T10:57:25;96698.41;;;33.05;38.96
56807;BME280;42687;42.524;12.052;2022-07-29T11:07:23;96701.50;;;30.41;42.17
56807;BME280;42687;42.524;12.052;2022-07-29T11:15:05;96698.13;;;31.60;40.18
56807;BME280;42687;42.524;12.052;2022-07-29T11:20:57;96692.63;;;31.23;40.41
56807;BME280;42687;42.524;12.052;2022-07-29T11:26:12;96682.03;;;31.84;38.56
56807;BME280;42687;42.524;12.052;2022-07-29T11:28:30;96691.47;;;32.49;37.84
56807;BME280;42687;42.524;12.052;2022-07-29T11:30:56;96691.88;;;33.06;36.73
56807;BME280;42687;42.524;12.052;2022-07-29T11:33:31;96680.78;;;33.67;36.11
56807;BME280;42687;42.524;12.052;2022-07-29T11:36:10;96679.50;;;33.82;34.40
56807;BME280;42687;42.524;12.052;2022-07-29T11:38:36;96675.56;;;34.30;33.87
56807;BME280;42687;42.524;12.052;2022-07-29T11:43:48;96688.50;;;34.23;30.74
56807;BME280;42687;42.524;12.052;2022-07-29T11:46:13;96646.06;;;33.74;31.63
56807;BME280;42687;42.524;12.052;2022-07-29T11:48:42;96677.47;;;33.65;32.80
56807;BME280;42687;42.524;12.052;2022-07-29T11:51:11;96681.06;;;34.18;31.66
56807;BME280;42687;42.524;12.052;2022-07-29T11:53:37;96675.56;;;34.59;32.03
56807;BME280;42687;42.524;12.052;2022-07-29T11:58:30;96680.47;;;34.86;30.56
56807;BME280;42687;42.524;12.052;2022-07-29T12:00:55;96676.00;;;35.31;29.90
56807;BME280;42687;42.524;12.052;2022-07-29T12:03:25;96677.81;;;35.08;30.25
56807;BME280;42687;42.524;12.052;2022-07-29T12:05:51;96673.03;;;34.69;30.34
56807;BME280;42687;42.524;12.052;2022-07-29T12:10:47;96671.19;;;35.38;30.04
56807;BME280;42687;42.524;12.052;2022-07-29T12:13:13;96654.78;;;35.55;28.57
56807;BME280;42687;42.524;12.052;2022-07-29T12:15:40;96670.84;;;35.51;29.10
56807;BME280;42687;42.524;12.052;2022-07-29T12:18:12;96658.94;;;35.06;29.34
56807;BME280;42687;42.524;12.052;2022-07-29T12:20:38;96660.25;;;35.04;28.84
56807;BME280;42687;42.524;12.052;2022-07-29T12:23:05;96672.00;;;35.38;29.92
56807;BME280;42687;42.524;12.052;2022-07-29T12:25:33;96663.53;;;35.57;28.98
56807;BME280;42687;42.524;12.052;2022-07-29T12:27:59;96664.81;;;35.15;28.05
56807;BME280;42687;42.524;12.052;2022-07-29T12:30:36;96665.88;;;35.48;27.45
56807;BME280;42687;42.524;12.052;2022-07-29T12:33:09;96663.31;;;35.24;25.95
56807;BME280;42687;42.524;12.052;2022-07-29T12:35:35;96668.97;;;35.35;25.99
56807;BME280;42687;42.524;12.052;2022-07-29T12:38:01;96651.63;;;36.07;24.69
56807;BME280;42687;42.524;12.052;2022-07-29T12:40:27;96660.16;;;35.89;22.92
56807;BME280;42687;42.524;12.052;2022-07-29T12:45:32;96654.44;;;35.90;21.72
56807;BME280;42687;42.524;12.052;2022-07-29T12:47:57;96648.38;;;36.11;20.16
56807;BME280;42687;42.524;12.052;2022-07-29T12:50:23;96652.66;;;36.01;18.94
56807;BME280;42687;42.524;12.052;2022-07-29T12:52:50;96652.72;;;36.06;19.72
56807;BME280;42687;42.524;12.052;2022-07-29T12:55:16;96649.72;;;36.08;18.90
56807;BME280;42687;42.524;12.052;2022-07-29T12:58:01;96652.06;;;36.21;19.00
56807;BME280;42687;42.524;12.052;2022-07-29T13:00:27;96655.47;;;36.06;19.34
56807;BME280;42687;42.524;12.052;2022-07-29T13:02:56;96649.88;;;35.79;20.03
56807;BME280;42687;42.524;12.052;2022-07-29T13:05:22;96657.22;;;35.73;20.67
56807;BME280;42687;42.524;12.052;2022-07-29T13:07:48;96655.34;;;35.96;31.80
56807;BME280;42687;42.524;12.052;2022-07-29T13:10:16;96656.94;;;35.19;33.65
56807;BME280;42687;42.524;12.052;2022-07-29T13:13:03;96650.81;;;35.12;33.92
56807;BME280;42687;42.524;12.052;2022-07-29T13:15:29;96640.78;;;35.51;33.74
56807;BME280;42687;42.524;12.052;2022-07-29T13:17:55;96639.53;;;35.25;33.92
56807;BME280;42687;42.524;12.052;2022-07-29T13:20:23;96629.75;;;34.78;34.11
56807;BME280;42687;42.524;12.052;2022-07-29T13:22:49;96631.13;;;34.93;34.10
56807;BME280;42687;42.524;12.052;2022-07-29T13:25:22;96632.00;;;35.49;33.65
56807;BME280;42687;42.524;12.052;2022-07-29T13:27:48;96629.88;;;35.34;34.38
56807;BME280;42687;42.524;12.052;2022-07-29T13:30:14;96627.66;;;34.68;34.83